Goree, Texas
Current Conditions -  °F | °C
As of 10:15 PM on Wednesday 28 Jan 2015 (Local Time) from KF05 Reporting Station
Clear Clear  
Wind Chill: 58°   Ceiling: Unl
Heat Index: 58°   Visibility: 10mi
Dew Point: 31°   Wind: 0mph
Humidity: 36%   Direction: NA
Pressure: 30.04"   Gusts: NA
Location:  33.47°N, 99.52°W
Report Text: KF05 290415Z AUTO 00000KT 10SM CLR 14/M01 A3004 RMK AO1 T01431008
Loading
Personal Weather Stations






























Interactive Weather Map New forecast layout! Learn more

10-Day Weather Forecast

Advertisements
Track Severe Weather on mobile